sensor_id;sensor_type;location;lat;lon;timestamp;pressure;altitude;pressure_sealevel;temperature;humidity
69411;BME280;56604;48.652;9.194;2023-10-19T00:01:10;94695.16;;;11.13;100.00
69411;BME280;56604;48.652;9.194;2023-10-19T00:03:36;94690.47;;;11.23;100.00
69411;BME280;56604;48.652;9.194;2023-10-19T00:06:02;94693.88;;;11.24;100.00
69411;BME280;56604;48.652;9.194;2023-10-19T00:08:27;94686.22;;;11.28;100.00
69411;BME280;56604;48.652;9.194;2023-10-19T00:11:01;94681.13;;;11.31;100.00
69411;BME280;56604;48.652;9.194;2023-10-19T00:13:37;94682.09;;;11.35;100.00
69411;BME280;56604;48.652;9.194;2023-10-19T00:16:04;94673.16;;;11.36;100.00
69411;BME280;56604;48.652;9.194;2023-10-19T00:18:48;94677.66;;;11.36;100.00
69411;BME280;56604;48.652;9.194;2023-10-19T00:21:15;94672.94;;;11.46;100.00
69411;BME280;56604;48.652;9.194;2023-10-19T00:23:44;94673.63;;;11.52;100.00
69411;BME280;56604;48.652;9.194;2023-10-19T00:26:12;94672.66;;;11.48;100.00
69411;BME280;56604;48.652;9.194;2023-10-19T00:28:44;94672.56;;;11.53;100.00
69411;BME280;56604;48.652;9.194;2023-10-19T00:31:12;94675.09;;;11.58;100.00
69411;BME280;56604;48.652;9.194;2023-10-19T00:33:38;94673.53;;;11.57;100.00
69411;BME280;56604;48.652;9.194;2023-10-19T00:36:05;94669.34;;;11.56;100.00
69411;BME280;56604;48.652;9.194;2023-10-19T00:38:38;94662.03;;;11.67;100.00
69411;BME280;56604;48.652;9.194;2023-10-19T00:41:07;94655.69;;;11.68;100.00
69411;BME280;56604;48.652;9.194;2023-10-19T00:43:53;94650.13;;;11.69;100.00
69411;BME280;56604;48.652;9.194;2023-10-19T00:46:27;94653.84;;;11.68;100.00
69411;BME280;56604;48.652;9.194;2023-10-19T00:49:03;94642.72;;;11.71;100.00
69411;BME280;56604;48.652;9.194;2023-10-19T00:51:36;94655.28;;;11.75;100.00
69411;BME280;56604;48.652;9.194;2023-10-19T00:54:05;94654.41;;;11.79;100.00
69411;BME280;56604;48.652;9.194;2023-10-19T00:56:36;94655.19;;;11.80;100.00
69411;BME280;56604;48.652;9.194;2023-10-19T00:59:02;94650.19;;;11.92;100.00
69411;BME280;56604;48.652;9.194;2023-10-19T01:01:51;94650.00;;;12.02;100.00
69411;BME280;56604;48.652;9.194;2023-10-19T01:04:19;94639.38;;;12.30;100.00
69411;BME280;56604;48.652;9.194;2023-10-19T01:06:49;94623.41;;;12.57;100.00
69411;BME280;56604;48.652;9.194;2023-10-19T01:09:30;94616.75;;;12.82;100.00
69411;BME280;56604;48.652;9.194;2023-10-19T01:12:02;94619.78;;;12.98;100.00
69411;BME280;56604;48.652;9.194;2023-10-19T01:15:24;94613.88;;;13.01;100.00
69411;BME280;56604;48.652;9.194;2023-10-19T01:17:58;94611.97;;;12.93;100.00
69411;BME280;56604;48.652;9.194;2023-10-19T01:20:26;94618.81;;;12.94;100.00
69411;BME280;56604;48.652;9.194;2023-10-19T01:28:16;94591.50;;;12.90;100.00
69411;BME280;56604;48.652;9.194;2023-10-19T01:30:43;94584.66;;;12.89;100.00
69411;BME280;56604;48.652;9.194;2023-10-19T01:33:09;94584.72;;;12.98;100.00
69411;BME280;56604;48.652;9.194;2023-10-19T01:35:38;94577.34;;;12.86;100.00
69411;BME280;56604;48.652;9.194;2023-10-19T01:38:23;94567.41;;;12.83;100.00
69411;BME280;56604;48.652;9.194;2023-10-19T01:40:48;94565.09;;;12.81;100.00
69411;BME280;56604;48.652;9.194;2023-10-19T01:43:16;94558.72;;;12.82;100.00
69411;BME280;56604;48.652;9.194;2023-10-19T01:45:52;94565.72;;;12.87;100.00
69411;BME280;56604;48.652;9.194;2023-10-19T01:48:19;94563.22;;;12.82;100.00
69411;BME280;56604;48.652;9.194;2023-10-19T01:50:48;94560.09;;;12.80;100.00
69411;BME280;56604;48.652;9.194;2023-10-19T01:53:16;94565.38;;;12.80;100.00
69411;BME280;56604;48.652;9.194;2023-10-19T01:55:43;94561.19;;;12.79;100.00
69411;BME280;56604;48.652;9.194;2023-10-19T01:58:09;94560.22;;;12.75;100.00
69411;BME280;56604;48.652;9.194;2023-10-19T02:00:35;94569.56;;;12.72;100.00
69411;BME280;56604;48.652;9.194;2023-10-19T02:03:06;94568.91;;;12.67;100.00
69411;BME280;56604;48.652;9.194;2023-10-19T02:05:33;94571.06;;;12.65;100.00
69411;BME280;56604;48.652;9.194;2023-10-19T02:08:05;94567.94;;;12.63;100.00
69411;BME280;56604;48.652;9.194;2023-10-19T02:10:34;94559.38;;;12.57;100.00
69411;BME280;56604;48.652;9.194;2023-10-19T02:13:01;94554.06;;;12.48;100.00
69411;BME280;56604;48.652;9.194;2023-10-19T02:15:32;94543.34;;;12.45;100.00
69411;BME280;56604;48.652;9.194;2023-10-19T02:17:57;94537.31;;;12.44;100.00
69411;BME280;56604;48.652;9.194;2023-10-19T02:20:26;94540.22;;;12.43;100.00
69411;BME280;56604;48.652;9.194;2023-10-19T02:22:52;94536.72;;;12.47;100.00
69411;BME280;56604;48.652;9.194;2023-10-19T02:25:17;94535.50;;;12.53;100.00
69411;BME280;56604;48.652;9.194;2023-10-19T02:27:43;94524.53;;;12.69;100.00
69411;BME280;56604;48.652;9.194;2023-10-19T02:30:11;94529.69;;;12.74;100.00
69411;BME280;56604;48.652;9.194;2023-10-19T02:32:37;94531.22;;;12.75;100.00
69411;BME280;56604;48.652;9.194;2023-10-19T02:35:02;94531.84;;;12.72;100.00
69411;BME280;56604;48.652;9.194;2023-10-19T02:37:28;94531.09;;;12.80;100.00
69411;BME280;56604;48.652;9.194;2023-10-19T02:39:53;94520.09;;;12.78;100.00
69411;BME280;56604;48.652;9.194;2023-10-19T02:42:19;94525.81;;;12.80;100.00
69411;BME280;56604;48.652;9.194;2023-10-19T02:44:47;94522.56;;;12.83;100.00
69411;BME280;56604;48.652;9.194;2023-10-19T02:47:15;94524.88;;;12.76;100.00
69411;BME280;56604;48.652;9.194;2023-10-19T02:49:42;94513.84;;;12.74;100.00
69411;BME280;56604;48.652;9.194;2023-10-19T02:52:09;94514.94;;;12.73;100.00
69411;BME280;56604;48.652;9.194;2023-10-19T02:54:38;94519.41;;;12.64;100.00
69411;BME280;56604;48.652;9.194;2023-10-19T02:57:03;94511.63;;;12.58;100.00
69411;BME280;56604;48.652;9.194;2023-10-19T02:59:32;94519.69;;;12.53;100.00
69411;BME280;56604;48.652;9.194;2023-10-19T03:01:59;94512.50;;;12.45;100.00
69411;BME280;56604;48.652;9.194;2023-10-19T03:04:40;94511.91;;;12.48;100.00
69411;BME280;56604;48.652;9.194;2023-10-19T03:07:07;94512.03;;;12.43;100.00
69411;BME280;56604;48.652;9.194;2023-10-19T03:09:33;94499.44;;;12.40;100.00
69411;BME280;56604;48.652;9.194;2023-10-19T03:12:01;94512.28;;;12.33;100.00
69411;BME280;56604;48.652;9.194;2023-10-19T03:14:35;94499.72;;;12.30;100.00
69411;BME280;56604;48.652;9.194;2023-10-19T03:17:00;94500.50;;;12.30;100.00
69411;BME280;56604;48.652;9.194;2023-10-19T03:19:26;94506.38;;;12.27;100.00
69411;BME280;56604;48.652;9.194;2023-10-19T03:21:53;94504.63;;;12.23;100.00
69411;BME280;56604;48.652;9.194;2023-10-19T03:24:25;94493.63;;;12.21;100.00
69411;BME280;56604;48.652;9.194;2023-10-19T03:27:05;94493.16;;;12.19;100.00
69411;BME280;56604;48.652;9.194;2023-10-19T03:29:47;94495.31;;;12.17;100.00
69411;BME280;56604;48.652;9.194;2023-10-19T03:32:18;94502.56;;;12.11;100.00
69411;BME280;56604;48.652;9.194;2023-10-19T03:34:47;94501.78;;;12.10;100.00
69411;BME280;56604;48.652;9.194;2023-10-19T03:37:13;94498.06;;;12.11;100.00
69411;BME280;56604;48.652;9.194;2023-10-19T03:39:39;94494.66;;;12.11;100.00
69411;BME280;56604;48.652;9.194;2023-10-19T03:42:05;94490.28;;;12.06;100.00
69411;BME280;56604;48.652;9.194;2023-10-19T03:44:34;94493.41;;;12.08;100.00
69411;BME280;56604;48.652;9.194;2023-10-19T03:47:18;94488.63;;;12.10;100.00
69411;BME280;56604;48.652;9.194;2023-10-19T03:49:45;94488.91;;;12.09;100.00
69411;BME280;56604;48.652;9.194;2023-10-19T03:52:12;94486.59;;;12.07;100.00
69411;BME280;56604;48.652;9.194;2023-10-19T03:54:38;94483.63;;;12.09;100.00
69411;BME280;56604;48.652;9.194;2023-10-19T03:57:08;94481.03;;;12.18;100.00
69411;BME280;56604;48.652;9.194;2023-10-19T03:59:50;94474.53;;;12.15;100.00
69411;BME280;56604;48.652;9.194;2023-10-19T04:02:18;94476.38;;;12.14;100.00
69411;BME280;56604;48.652;9.194;2023-10-19T04:04:47;94471.13;;;12.14;100.00
69411;BME280;56604;48.652;9.194;2023-10-19T04:07:17;94462.16;;;12.15;100.00
69411;BME280;56604;48.652;9.194;2023-10-19T04:09:51;94455.97;;;12.20;100.00
69411;BME280;56604;48.652;9.194;2023-10-19T04:12:27;94449.19;;;12.28;100.00
69411;BME280;56604;48.652;9.194;2023-10-19T04:15:02;94449.66;;;12.30;100.00
69411;BME280;56604;48.652;9.194;2023-10-19T04:17:45;94449.31;;;12.23;100.00
69411;BME280;56604;48.652;9.194;2023-10-19T04:20:11;94441.88;;;12.25;100.00
69411;BME280;56604;48.652;9.194;2023-10-19T04:22:46;94439.41;;;12.28;100.00
69411;BME280;56604;48.652;9.194;2023-10-19T04:25:13;94440.31;;;12.24;100.00
69411;BME280;56604;48.652;9.194;2023-10-19T04:27:40;94434.13;;;12.20;100.00
69411;BME280;56604;48.652;9.194;2023-10-19T04:30:08;94430.53;;;12.15;100.00
69411;BME280;56604;48.652;9.194;2023-10-19T04:32:41;94432.09;;;12.17;100.00
69411;BME280;56604;48.652;9.194;2023-10-19T04:35:07;94430.53;;;12.15;100.00
69411;BME280;56604;48.652;9.194;2023-10-19T04:37:34;94438.28;;;12.21;100.00
69411;BME280;56604;48.652;9.194;2023-10-19T04:40:00;94429.31;;;12.22;100.00
69411;BME280;56604;48.652;9.194;2023-10-19T04:42:26;94427.28;;;12.19;100.00
69411;BME280;56604;48.652;9.194;2023-10-19T04:44:54;94424.47;;;12.15;100.00
69411;BME280;56604;48.652;9.194;2023-10-19T04:47:19;94430.34;;;12.12;100.00
69411;BME280;56604;48.652;9.194;2023-10-19T04:49:44;94417.97;;;12.12;100.00
69411;BME280;56604;48.652;9.194;2023-10-19T04:52:10;94426.66;;;12.13;100.00
69411;BME280;56604;48.652;9.194;2023-10-19T04:54:35;94437.00;;;12.09;100.00
69411;BME280;56604;48.652;9.194;2023-10-19T04:57:02;94430.78;;;12.05;100.00
69411;BME280;56604;48.652;9.194;2023-10-19T04:59:28;94433.13;;;12.07;100.00
69411;BME280;56604;48.652;9.194;2023-10-19T05:01:56;94436.53;;;12.07;100.00
69411;BME280;56604;48.652;9.194;2023-10-19T05:04:21;94423.19;;;12.04;100.00
69411;BME280;56604;48.652;9.194;2023-10-19T05:06:47;94422.94;;;12.14;100.00
69411;BME280;56604;48.652;9.194;2023-10-19T05:09:12;94420.00;;;12.15;100.00
69411;BME280;56604;48.652;9.194;2023-10-19T05:11:38;94418.78;;;12.22;100.00
69411;BME280;56604;48.652;9.194;2023-10-19T05:14:04;94401.31;;;12.34;100.00
69411;BME280;56604;48.652;9.194;2023-10-19T05:16:30;94403.97;;;12.43;100.00
69411;BME280;56604;48.652;9.194;2023-10-19T05:18:56;94405.22;;;12.46;100.00
69411;BME280;56604;48.652;9.194;2023-10-19T05:21:21;94407.56;;;12.47;100.00
69411;BME280;56604;48.652;9.194;2023-10-19T05:23:46;94402.16;;;12.52;100.00
69411;BME280;56604;48.652;9.194;2023-10-19T05:26:12;94411.13;;;12.51;100.00
69411;BME280;56604;48.652;9.194;2023-10-19T05:28:39;94411.75;;;12.48;100.00
69411;BME280;56604;48.652;9.194;2023-10-19T05:31:05;94420.13;;;12.50;100.00
69411;BME280;56604;48.652;9.194;2023-10-19T05:33:30;94418.91;;;12.56;100.00
69411;BME280;56604;48.652;9.194;2023-10-19T05:35:55;94412.09;;;12.55;100.00
69411;BME280;56604;48.652;9.194;2023-10-19T05:38:21;94412.13;;;12.73;100.00
69411;BME280;56604;48.652;9.194;2023-10-19T05:40:50;94413.69;;;12.91;100.00
69411;BME280;56604;48.652;9.194;2023-10-19T05:43:17;94404.38;;;12.94;100.00
69411;BME280;56604;48.652;9.194;2023-10-19T05:45:42;94401.91;;;12.97;100.00
69411;BME280;56604;48.652;9.194;2023-10-19T05:48:08;94409.38;;;12.95;100.00
69411;BME280;56604;48.652;9.194;2023-10-19T05:50:34;94405.47;;;12.93;100.00
69411;BME280;56604;48.652;9.194;2023-10-19T05:53:00;94409.50;;;12.90;100.00
69411;BME280;56604;48.652;9.194;2023-10-19T05:55:25;94411.53;;;12.93;100.00
69411;BME280;56604;48.652;9.194;2023-10-19T05:57:51;94405.31;;;12.89;100.00
69411;BME280;56604;48.652;9.194;2023-10-19T06:00:16;94412.44;;;12.89;100.00
69411;BME280;56604;48.652;9.194;2023-10-19T06:02:44;94407.78;;;12.94;100.00
69411;BME280;56604;48.652;9.194;2023-10-19T06:05:10;94414.66;;;12.95;100.00
69411;BME280;56604;48.652;9.194;2023-10-19T06:07:35;94412.91;;;12.91;100.00
69411;BME280;56604;48.652;9.194;2023-10-19T06:10:01;94420.97;;;12.94;100.00
69411;BME280;56604;48.652;9.194;2023-10-19T06:12:33;94416.03;;;12.93;100.00
69411;BME280;56604;48.652;9.194;2023-10-19T06:14:59;94420.19;;;12.85;100.00
69411;BME280;56604;48.652;9.194;2023-10-19T06:17:25;94425.31;;;12.81;100.00
69411;BME280;56604;48.652;9.194;2023-10-19T06:19:52;94422.22;;;12.88;100.00
69411;BME280;56604;48.652;9.194;2023-10-19T06:22:17;94417.44;;;12.90;100.00
69411;BME280;56604;48.652;9.194;2023-10-19T06:24:42;94429.72;;;13.03;100.00
69411;BME280;56604;48.652;9.194;2023-10-19T06:27:09;94423.81;;;13.15;100.00
69411;BME280;56604;48.652;9.194;2023-10-19T06:29:35;94410.63;;;13.15;100.00
69411;BME280;56604;48.652;9.194;2023-10-19T06:32:00;94423.19;;;13.18;100.00
69411;BME280;56604;48.652;9.194;2023-10-19T06:34:26;94417.28;;;13.21;100.00
69411;BME280;56604;48.652;9.194;2023-10-19T06:36:52;94418.53;;;13.24;100.00
69411;BME280;56604;48.652;9.194;2023-10-19T06:39:19;94423.97;;;13.19;100.00
69411;BME280;56604;48.652;9.194;2023-10-19T06:41:46;94424.44;;;13.21;100.00
69411;BME280;56604;48.652;9.194;2023-10-19T06:44:11;94421.47;;;13.14;100.00
69411;BME280;56604;48.652;9.194;2023-10-19T06:46:36;94420.38;;;13.06;100.00
69411;BME280;56604;48.652;9.194;2023-10-19T06:49:02;94425.66;;;13.06;100.00
69411;BME280;56604;48.652;9.194;2023-10-19T06:51:27;94423.97;;;13.01;100.00
69411;BME280;56604;48.652;9.194;2023-10-19T06:53:54;94427.06;;;13.03;100.00
69411;BME280;56604;48.652;9.194;2023-10-19T06:56:21;94422.84;;;13.02;100.00
69411;BME280;56604;48.652;9.194;2023-10-19T06:58:46;94428.63;;;13.04;100.00
69411;BME280;56604;48.652;9.194;2023-10-19T07:01:11;94415.56;;;12.99;100.00
69411;BME280;56604;48.652;9.194;2023-10-19T07:03:38;94417.59;;;13.02;100.00
69411;BME280;56604;48.652;9.194;2023-10-19T07:06:04;94417.09;;;13.00;100.00
69411;BME280;56604;48.652;9.194;2023-10-19T07:08:29;94429.38;;;12.96;100.00
69411;BME280;56604;48.652;9.194;2023-10-19T07:10:55;94425.34;;;12.99;100.00
69411;BME280;56604;48.652;9.194;2023-10-19T07:13:20;94426.75;;;12.96;100.00
69411;BME280;56604;48.652;9.194;2023-10-19T07:15:47;94427.66;;;13.00;100.00
69411;BME280;56604;48.652;9.194;2023-10-19T07:18:14;94428.63;;;13.04;100.00
69411;BME280;56604;48.652;9.194;2023-10-19T07:20:40;94426.28;;;13.03;100.00
69411;BME280;56604;48.652;9.194;2023-10-19T07:23:07;94419.59;;;13.05;100.00
69411;BME280;56604;48.652;9.194;2023-10-19T07:25:47;94425.50;;;13.20;100.00
69411;BME280;56604;48.652;9.194;2023-10-19T07:28:14;94419.50;;;13.28;100.00
69411;BME280;56604;48.652;9.194;2023-10-19T07:30:41;94417.63;;;13.46;100.00
69411;BME280;56604;48.652;9.194;2023-10-19T07:33:08;94417.44;;;13.60;100.00
69411;BME280;56604;48.652;9.194;2023-10-19T07:35:35;94412.00;;;13.65;100.00
69411;BME280;56604;48.652;9.194;2023-10-19T07:38:04;94414.34;;;13.75;100.00
69411;BME280;56604;48.652;9.194;2023-10-19T07:40:30;94411.03;;;13.87;100.00
69411;BME280;56604;48.652;9.194;2023-10-19T07:42:55;94405.38;;;14.06;100.00
69411;BME280;56604;48.652;9.194;2023-10-19T07:45:21;94402.97;;;14.30;100.00
69411;BME280;56604;48.652;9.194;2023-10-19T07:47:47;94397.91;;;14.55;100.00
69411;BME280;56604;48.652;9.194;2023-10-19T07:50:13;94393.06;;;14.87;99.65
69411;BME280;56604;48.652;9.194;2023-10-19T07:52:47;94399.13;;;15.08;98.24
69411;BME280;56604;48.652;9.194;2023-10-19T07:55:14;94395.59;;;15.46;96.70
69411;BME280;56604;48.652;9.194;2023-10-19T07:57:40;94395.72;;;15.62;94.54
69411;BME280;56604;48.652;9.194;2023-10-19T08:00:06;94392.22;;;15.91;93.69
69411;BME280;56604;48.652;9.194;2023-10-19T08:02:38;94400.19;;;16.03;92.02
69411;BME280;56604;48.652;9.194;2023-10-19T08:05:06;94398.22;;;16.12;91.59
69411;BME280;56604;48.652;9.194;2023-10-19T08:07:32;94391.16;;;16.29;91.29
69411;BME280;56604;48.652;9.194;2023-10-19T08:09:57;94398.84;;;15.97;87.79
69411;BME280;56604;48.652;9.194;2023-10-19T08:12:26;94395.97;;;15.90;88.90
69411;BME280;56604;48.652;9.194;2023-10-19T08:14:54;94392.19;;;15.79;87.69
69411;BME280;56604;48.652;9.194;2023-10-19T08:17:20;94388.34;;;15.67;89.78
69411;BME280;56604;48.652;9.194;2023-10-19T08:19:46;94398.16;;;15.88;90.14
69411;BME280;56604;48.652;9.194;2023-10-19T08:22:11;94397.63;;;15.94;90.02
69411;BME280;56604;48.652;9.194;2023-10-19T08:24:40;94398.13;;;16.46;89.57
69411;BME280;56604;48.652;9.194;2023-10-19T08:27:11;94400.63;;;17.16;88.14
69411;BME280;56604;48.652;9.194;2023-10-19T08:29:37;94393.66;;;17.51;86.66
69411;BME280;56604;48.652;9.194;2023-10-19T08:32:03;94407.41;;;17.97;84.66
69411;BME280;56604;48.652;9.194;2023-10-19T08:34:28;94395.25;;;18.12;80.87
69411;BME280;56604;48.652;9.194;2023-10-19T08:36:55;94394.56;;;18.15;80.24
69411;BME280;56604;48.652;9.194;2023-10-19T08:39:20;94390.81;;;18.48;79.95
69411;BME280;56604;48.652;9.194;2023-10-19T08:41:46;94387.69;;;18.62;78.87
69411;BME280;56604;48.652;9.194;2023-10-19T08:44:14;94384.78;;;18.35;80.80
69411;BME280;56604;48.652;9.194;2023-10-19T08:46:44;94386.81;;;18.58;78.88
69411;BME280;56604;48.652;9.194;2023-10-19T08:49:11;94389.34;;;18.51;77.66
69411;BME280;56604;48.652;9.194;2023-10-19T08:51:38;94387.13;;;18.53;77.71
69411;BME280;56604;48.652;9.194;2023-10-19T08:54:04;94396.19;;;18.04;79.83
69411;BME280;56604;48.652;9.194;2023-10-19T08:56:31;94398.50;;;18.06;79.39
69411;BME280;56604;48.652;9.194;2023-10-19T08:58:59;94397.22;;;18.15;78.99
69411;BME280;56604;48.652;9.194;2023-10-19T09:01:25;94399.19;;;18.03;81.08
69411;BME280;56604;48.652;9.194;2023-10-19T09:03:53;94392.91;;;17.95;81.39
69411;BME280;56604;48.652;9.194;2023-10-19T09:06:20;94394.00;;;17.78;81.52
69411;BME280;56604;48.652;9.194;2023-10-19T09:08:47;94389.59;;;18.30;80.31
69411;BME280;56604;48.652;9.194;2023-10-19T09:11:13;94391.56;;;18.17;79.75
69411;BME280;56604;48.652;9.194;2023-10-19T09:13:49;94397.75;;;18.05;79.69
69411;BME280;56604;48.652;9.194;2023-10-19T09:16:19;94392.06;;;17.63;82.58
69411;BME280;56604;48.652;9.194;2023-10-19T09:18:46;94393.50;;;17.60;83.71
69411;BME280;56604;48.652;9.194;2023-10-19T09:21:15;94395.88;;;17.49;83.37
69411;BME280;56604;48.652;9.194;2023-10-19T09:23:56;94388.09;;;17.28;83.81
69411;BME280;56604;48.652;9.194;2023-10-19T09:26:23;94386.28;;;16.92;83.31
69411;BME280;56604;48.652;9.194;2023-10-19T09:28:50;94380.03;;;17.13;83.88
69411;BME280;56604;48.652;9.194;2023-10-19T09:31:17;94379.81;;;17.18;83.76
69411;BME280;56604;48.652;9.194;2023-10-19T09:33:44;94379.66;;;16.61;86.67
69411;BME280;56604;48.652;9.194;2023-10-19T09:36:11;94368.81;;;16.67;88.21
69411;BME280;56604;48.652;9.194;2023-10-19T09:38:44;94366.63;;;16.69;88.61
69411;BME280;56604;48.652;9.194;2023-10-19T09:41:12;94366.81;;;17.00;86.44
69411;BME280;56604;48.652;9.194;2023-10-19T09:43:41;94369.50;;;16.63;87.38
69411;BME280;56604;48.652;9.194;2023-10-19T09:46:08;94367.25;;;16.90;86.55
69411;BME280;56604;48.652;9.194;2023-10-19T09:49:01;94362.09;;;16.81;87.17
69411;BME280;56604;48.652;9.194;2023-10-19T09:51:26;94375.91;;;16.26;88.74
69411;BME280;56604;48.652;9.194;2023-10-19T09:54:04;94370.63;;;16.62;87.38
69411;BME280;56604;48.652;9.194;2023-10-19T09:56:36;94358.00;;;16.84;86.75
69411;BME280;56604;48.652;9.194;2023-10-19T10:02:12;94363.31;;;16.84;86.51
69411;BME280;56604;48.652;9.194;2023-10-19T10:04:38;94361.75;;;16.83;86.54
69411;BME280;56604;48.652;9.194;2023-10-19T10:07:06;94375.69;;;16.18;90.66
69411;BME280;56604;48.652;9.194;2023-10-19T10:09:36;94367.97;;;16.26;90.55
69411;BME280;56604;48.652;9.194;2023-10-19T10:12:21;94367.19;;;16.37;89.95
69411;BME280;56604;48.652;9.194;2023-10-19T10:15:02;94372.25;;;16.30;90.52
69411;BME280;56604;48.652;9.194;2023-10-19T10:17:34;94359.78;;;16.31;89.88
69411;BME280;56604;48.652;9.194;2023-10-19T10:22:36;94364.88;;;16.48;91.01
69411;BME280;56604;48.652;9.194;2023-10-19T10:25:02;94361.75;;;16.83;89.40
69411;BME280;56604;48.652;9.194;2023-10-19T10:27:27;94359.75;;;16.92;90.00
69411;BME280;56604;48.652;9.194;2023-10-19T10:29:59;94359.41;;;17.34;87.78
69411;BME280;56604;48.652;9.194;2023-10-19T10:32:47;94352.81;;;17.44;87.64
69411;BME280;56604;48.652;9.194;2023-10-19T10:38:07;94365.03;;;17.33;86.65
69411;BME280;56604;48.652;9.194;2023-10-19T10:40:47;94358.78;;;17.25;87.62
69411;BME280;56604;48.652;9.194;2023-10-19T10:43:13;94352.16;;;17.47;86.94
69411;BME280;56604;48.652;9.194;2023-10-19T10:45:39;94351.91;;;17.24;87.12
69411;BME280;56604;48.652;9.194;2023-10-19T10:48:12;94358.63;;;16.93;88.04
69411;BME280;56604;48.652;9.194;2023-10-19T10:50:37;94359.09;;;16.83;90.55
69411;BME280;56604;48.652;9.194;2023-10-19T10:53:04;94359.56;;;16.85;90.21
69411;BME280;56604;48.652;9.194;2023-10-19T10:55:30;94357.88;;;16.93;89.30
69411;BME280;56604;48.652;9.194;2023-10-19T10:57:55;94363.25;;;17.08;90.28
69411;BME280;56604;48.652;9.194;2023-10-19T11:00:21;94362.72;;;17.03;90.30
69411;BME280;56604;48.652;9.194;2023-10-19T11:05:25;94366.34;;;17.11;89.92
69411;BME280;56604;48.652;9.194;2023-10-19T11:10:39;94355.47;;;17.16;89.67
69411;BME280;56604;48.652;9.194;2023-10-19T11:13:12;94349.53;;;17.06;90.11
69411;BME280;56604;48.652;9.194;2023-10-19T11:15:47;94348.28;;;16.88;90.49
69411;BME280;56604;48.652;9.194;2023-10-19T11:21:05;94362.00;;;16.41;93.27
69411;BME280;56604;48.652;9.194;2023-10-19T11:23:47;94354.16;;;16.32;94.08
69411;BME280;56604;48.652;9.194;2023-10-19T11:26:16;94362.22;;;16.24;94.83
69411;BME280;56604;48.652;9.194;2023-10-19T11:28:42;94361.44;;;16.23;95.07
69411;BME280;56604;48.652;9.194;2023-10-19T11:31:15;94352.03;;;16.13;96.23
69411;BME280;56604;48.652;9.194;2023-10-19T11:33:42;94348.72;;;16.04;96.89
69411;BME280;56604;48.652;9.194;2023-10-19T11:36:08;94342.53;;;16.00;97.52
69411;BME280;56604;48.652;9.194;2023-10-19T11:38:34;94345.84;;;15.97;98.10
69411;BME280;56604;48.652;9.194;2023-10-19T11:41:00;94340.09;;;16.07;98.41
69411;BME280;56604;48.652;9.194;2023-10-19T11:43:26;94336.56;;;16.03;98.64
69411;BME280;56604;48.652;9.194;2023-10-19T11:45:51;94327.44;;;16.25;98.26
69411;BME280;56604;48.652;9.194;2023-10-19T11:48:17;94335.69;;;16.11;98.36
69411;BME280;56604;48.652;9.194;2023-10-19T11:50:42;94332.91;;;16.08;98.89
69411;BME280;56604;48.652;9.194;2023-10-19T11:53:07;94323.66;;;16.14;99.04
69411;BME280;56604;48.652;9.194;2023-10-19T11:55:35;94308.50;;;16.02;99.39
69411;BME280;56604;48.652;9.194;2023-10-19T11:58:00;94318.03;;;15.91;99.70
69411;BME280;56604;48.652;9.194;2023-10-19T12:00:26;94311.16;;;15.90;100.00
69411;BME280;56604;48.652;9.194;2023-10-19T12:02:59;94307.28;;;15.87;100.00
69411;BME280;56604;48.652;9.194;2023-10-19T12:05:24;94301.00;;;15.80;100.00
69411;BME280;56604;48.652;9.194;2023-10-19T12:07:50;94295.00;;;15.70;100.00
69411;BME280;56604;48.652;9.194;2023-10-19T12:10:17;94286.41;;;15.73;100.00
69411;BME280;56604;48.652;9.194;2023-10-19T12:12:45;94281.91;;;15.74;100.00
69411;BME280;56604;48.652;9.194;2023-10-19T12:15:10;94274.50;;;15.80;100.00
69411;BME280;56604;48.652;9.194;2023-10-19T12:17:37;94267.84;;;15.73;100.00
69411;BME280;56604;48.652;9.194;2023-10-19T12:20:03;94256.94;;;15.75;100.00
69411;BME280;56604;48.652;9.194;2023-10-19T12:22:31;94252.34;;;15.51;100.00
69411;BME280;56604;48.652;9.194;2023-10-19T12:25:01;94245.06;;;15.48;100.00
69411;BME280;56604;48.652;9.194;2023-10-19T12:27:27;94231.91;;;15.39;100.00
69411;BME280;56604;48.652;9.194;2023-10-19T12:29:53;94246.81;;;15.32;100.00
69411;BME280;56604;48.652;9.194;2023-10-19T12:32:19;94241.91;;;15.09;100.00
69411;BME280;56604;48.652;9.194;2023-10-19T12:34:44;94259.31;;;15.10;100.00
69411;BME280;56604;48.652;9.194;2023-10-19T12:37:10;94260.38;;;14.97;100.00
69411;BME280;56604;48.652;9.194;2023-10-19T12:39:38;94257.41;;;14.98;100.00
69411;BME280;56604;48.652;9.194;2023-10-19T12:42:16;94262.59;;;14.95;100.00
69411;BME280;56604;48.652;9.194;2023-10-19T12:44:41;94264.13;;;14.96;100.00
69411;BME280;56604;48.652;9.194;2023-10-19T12:47:08;94265.63;;;15.18;100.00
69411;BME280;56604;48.652;9.194;2023-10-19T12:49:40;94263.28;;;15.04;100.00
69411;BME280;56604;48.652;9.194;2023-10-19T12:52:08;94268.47;;;15.13;100.00
69411;BME280;56604;48.652;9.194;2023-10-19T12:54:35;94264.97;;;15.21;100.00
69411;BME280;56604;48.652;9.194;2023-10-19T12:57:01;94265.88;;;15.25;100.00
69411;BME280;56604;48.652;9.194;2023-10-19T12:59:29;94275.03;;;15.27;100.00
69411;BME280;56604;48.652;9.194;2023-10-19T13:01:54;94260.81;;;15.32;100.00
69411;BME280;56604;48.652;9.194;2023-10-19T13:04:23;94259.81;;;15.24;100.00
69411;BME280;56604;48.652;9.194;2023-10-19T13:06:50;94260.00;;;15.19;100.00
69411;BME280;56604;48.652;9.194;2023-10-19T13:09:15;94253.63;;;15.20;100.00
69411;BME280;56604;48.652;9.194;2023-10-19T13:11:41;94252.19;;;15.23;100.00
69411;BME280;56604;48.652;9.194;2023-10-19T13:14:09;94246.84;;;15.44;100.00
69411;BME280;56604;48.652;9.194;2023-10-19T13:16:35;94243.97;;;15.49;100.00
69411;BME280;56604;48.652;9.194;2023-10-19T13:19:00;94245.09;;;15.60;100.00
69411;BME280;56604;48.652;9.194;2023-10-19T13:21:37;94238.38;;;15.87;100.00